createdAt,value
2018-08-14T00:02:24.990Z,12.90
2018-08-14T00:04:52.520Z,12.90
2018-08-14T00:07:20.455Z,12.90
2018-08-14T00:09:48.168Z,12.91
2018-08-14T00:12:15.769Z,12.89
2018-08-14T00:14:43.586Z,12.86
2018-08-14T00:17:11.140Z,12.85
2018-08-14T00:19:38.733Z,12.86
2018-08-14T00:22:06.359Z,12.87
2018-08-14T00:24:34.203Z,12.87
2018-08-14T00:27:01.731Z,12.87
2018-08-14T00:29:29.528Z,12.88
2018-08-14T00:31:57.146Z,12.86
2018-08-14T00:34:24.713Z,12.86
2018-08-14T00:36:52.437Z,12.86
2018-08-14T00:39:19.964Z,12.84
2018-08-14T00:41:47.484Z,12.84
2018-08-14T00:44:15.390Z,12.69
2018-08-14T00:46:42.953Z,12.82
2018-08-14T00:49:10.505Z,12.83
2018-08-14T00:51:38.246Z,12.83
2018-08-14T00:54:05.848Z,12.82
2018-08-14T00:56:33.379Z,12.81
2018-08-14T00:59:01.122Z,12.81
2018-08-14T01:01:28.705Z,12.80
2018-08-14T01:03:56.222Z,12.78
2018-08-14T01:06:23.911Z,12.77
2018-08-14T01:08:51.688Z,12.76
2018-08-14T01:11:19.222Z,12.74
2018-08-14T01:13:46.961Z,12.72
2018-08-14T01:16:14.520Z,12.72
2018-08-14T01:18:41.980Z,12.71
2018-08-14T01:21:09.565Z,12.70
2018-08-14T01:23:37.103Z,12.70
2018-08-14T01:26:04.637Z,12.68
2018-08-14T01:28:32.257Z,12.66
2018-08-14T01:30:59.840Z,12.66
2018-08-14T01:33:27.373Z,12.65
2018-08-14T01:35:55.171Z,12.65
2018-08-14T01:38:22.664Z,12.65
2018-08-14T01:40:50.159Z,12.64
2018-08-14T01:43:17.849Z,12.64
2018-08-14T01:45:45.391Z,12.63
2018-08-14T01:48:12.888Z,12.63
2018-08-14T01:50:40.598Z,12.64
2018-08-14T01:53:08.081Z,12.64
2018-08-14T01:55:35.535Z,12.63
2018-08-14T01:58:03.242Z,12.65
2018-08-14T02:00:30.715Z,12.65
2018-08-14T02:02:58.215Z,12.63
2018-08-14T02:05:25.891Z,12.63
2018-08-14T02:07:53.421Z,12.64
2018-08-14T02:10:22.059Z,12.65
2018-08-14T02:12:49.744Z,12.65
2018-08-14T02:15:17.924Z,12.66
2018-08-14T02:17:45.609Z,12.65
2018-08-14T02:20:16.234Z,12.67
2018-08-14T02:22:43.987Z,12.68
2018-08-14T02:25:11.594Z,12.69
2018-08-14T02:27:39.511Z,12.70
2018-08-14T02:30:07.454Z,12.70
2018-08-14T02:32:35.328Z,12.70
2018-08-14T02:35:03.186Z,12.71
2018-08-14T02:37:30.788Z,12.71
2018-08-14T02:39:58.348Z,12.71
2018-08-14T02:42:26.066Z,12.70
2018-08-14T02:44:53.565Z,12.72
2018-08-14T02:47:21.139Z,12.74
2018-08-14T02:49:48.912Z,12.74
2018-08-14T02:52:16.436Z,12.75
2018-08-14T02:54:43.955Z,12.78
2018-08-14T02:57:11.649Z,12.80
2018-08-14T02:59:39.492Z,12.81
2018-08-14T03:02:07.087Z,12.81
2018-08-14T03:04:34.836Z,12.83
2018-08-14T03:07:02.582Z,12.84
2018-08-14T03:09:30.069Z,12.84
2018-08-14T03:11:58.176Z,12.85
2018-08-14T03:14:25.713Z,12.86
2018-08-14T03:16:53.201Z,12.86
2018-08-14T03:19:20.949Z,12.87
2018-08-14T03:21:48.533Z,12.87
2018-08-14T03:24:15.985Z,12.88
2018-08-14T03:26:43.590Z,12.89
2018-08-14T03:29:11.125Z,12.89
2018-08-14T03:31:38.626Z,12.90
2018-08-14T03:34:06.447Z,12.92
2018-08-14T03:36:33.959Z,12.93
2018-08-14T03:39:01.444Z,12.94
2018-08-14T03:41:29.205Z,12.95
2018-08-14T03:43:56.757Z,12.95
2018-08-14T03:46:24.324Z,12.96
2018-08-14T03:48:52.160Z,12.96
2018-08-14T03:51:19.699Z,12.98
2018-08-14T03:53:47.202Z,12.99
2018-08-14T03:56:14.995Z,13.01
2018-08-14T03:58:42.568Z,13.03
2018-08-14T04:01:10.080Z,13.04
2018-08-14T04:03:37.752Z,13.04
2018-08-14T04:06:05.307Z,13.06
2018-08-14T04:08:32.966Z,13.07
2018-08-14T04:11:00.621Z,13.10
2018-08-14T04:13:28.464Z,13.12
2018-08-14T04:15:55.960Z,13.14
2018-08-14T04:18:23.660Z,13.18
2018-08-14T04:20:51.162Z,13.18
2018-08-14T04:23:18.655Z,13.20
2018-08-14T04:25:46.434Z,13.22
2018-08-14T04:28:13.964Z,13.24
2018-08-14T04:30:41.445Z,13.26
2018-08-14T04:33:09.191Z,13.29
2018-08-14T04:35:36.670Z,13.32
2018-08-14T04:38:04.262Z,13.35
2018-08-14T04:40:31.915Z,13.38
2018-08-14T04:42:59.443Z,13.40
2018-08-14T04:45:26.945Z,13.45
2018-08-14T04:47:54.610Z,13.46
2018-08-14T04:50:22.137Z,13.50
2018-08-14T04:52:49.728Z,13.53
2018-08-14T04:55:17.261Z,13.55
2018-08-14T04:57:44.731Z,13.59
2018-08-14T05:00:14.020Z,13.63
2018-08-14T05:02:41.727Z,13.65
2018-08-14T05:05:10.300Z,13.68
2018-08-14T05:07:38.287Z,13.72
2018-08-14T05:10:06.823Z,13.76
2018-08-14T05:12:34.410Z,13.79
2018-08-14T05:15:02.496Z,13.82
2018-08-14T05:17:30.121Z,13.85
2018-08-14T05:19:57.707Z,13.88
2018-08-14T05:22:25.176Z,13.90
2018-08-14T05:24:52.828Z,13.94
2018-08-14T05:27:20.396Z,13.98
2018-08-14T05:29:47.881Z,14.01
2018-08-14T05:32:15.542Z,14.04
2018-08-14T05:34:43.227Z,14.07
2018-08-14T05:37:10.828Z,14.12
2018-08-14T05:39:38.628Z,14.15
2018-08-14T05:42:06.187Z,14.19
2018-08-14T05:44:33.687Z,14.21
2018-08-14T05:47:01.465Z,14.27
2018-08-14T05:49:29.060Z,14.29
2018-08-14T05:51:56.596Z,14.31
2018-08-14T05:54:24.425Z,14.33
2018-08-14T05:56:51.960Z,14.34
2018-08-14T05:59:19.442Z,14.37
2018-08-14T06:01:47.079Z,14.41
2018-08-14T06:04:14.544Z,14.43
2018-08-14T06:06:42.049Z,14.46
2018-08-14T06:09:11.099Z,14.50
2018-08-14T06:11:38.814Z,14.55
2018-08-14T06:14:06.908Z,14.51
2018-08-14T06:16:34.903Z,14.62
2018-08-14T06:19:02.455Z,14.66
2018-08-14T06:21:29.955Z,14.70
2018-08-14T06:23:57.593Z,14.75
2018-08-14T06:26:25.139Z,14.79
2018-08-14T06:28:52.632Z,14.83
2018-08-14T06:31:20.357Z,14.86
2018-08-14T06:33:47.836Z,14.89
2018-08-14T06:36:15.354Z,14.91
2018-08-14T06:38:43.117Z,14.95
2018-08-14T06:41:10.690Z,15.00
2018-08-14T06:43:38.162Z,15.04
2018-08-14T06:46:05.904Z,15.08
2018-08-14T06:48:33.461Z,15.12
2018-08-14T06:51:00.988Z,15.17
2018-08-14T06:53:28.664Z,15.21
2018-08-14T06:55:56.156Z,15.25
2018-08-14T06:58:23.705Z,15.29
2018-08-14T07:00:51.363Z,15.34
2018-08-14T07:03:18.834Z,15.38
2018-08-14T07:05:46.309Z,15.42
2018-08-14T07:08:13.898Z,15.47
2018-08-14T07:10:41.505Z,15.52
2018-08-14T07:13:09.084Z,15.54
2018-08-14T07:15:36.776Z,15.59
2018-08-14T07:18:04.548Z,15.62
2018-08-14T07:20:32.111Z,15.67
2018-08-14T07:22:59.856Z,15.71
2018-08-14T07:25:27.451Z,15.75
2018-08-14T07:27:54.979Z,15.70
2018-08-14T07:30:24.155Z,15.79
2018-08-14T07:32:51.623Z,15.81
2018-08-14T07:35:19.213Z,15.85
2018-08-14T07:37:47.072Z,15.89
2018-08-14T07:40:14.556Z,15.94
2018-08-14T07:42:42.144Z,16.00
2018-08-14T07:45:11.558Z,16.05
2018-08-14T07:47:39.231Z,16.08
2018-08-14T07:50:07.858Z,16.13
2018-08-14T07:52:35.484Z,16.16
2018-08-14T07:55:03.278Z,16.22
2018-08-14T07:57:30.745Z,16.28
2018-08-14T07:59:58.511Z,16.32
2018-08-14T08:02:26.035Z,16.37
2018-08-14T08:04:53.577Z,16.40
2018-08-14T08:07:21.203Z,16.42
2018-08-14T08:09:48.664Z,16.47
2018-08-14T08:12:16.241Z,16.52
2018-08-14T08:14:43.956Z,16.57
2018-08-14T08:17:11.461Z,16.59
2018-08-14T08:19:39.481Z,16.62
2018-08-14T08:22:07.478Z,16.67
2018-08-14T08:24:35.005Z,16.70
2018-08-14T08:27:02.631Z,16.74
2018-08-14T08:29:30.399Z,16.77
2018-08-14T08:31:57.907Z,16.80
2018-08-14T08:34:25.457Z,16.84
2018-08-14T08:36:53.218Z,16.87
2018-08-14T08:39:20.736Z,16.91
2018-08-14T08:41:48.343Z,16.96
2018-08-14T08:44:16.069Z,17.02
2018-08-14T08:46:43.642Z,17.06
2018-08-14T08:49:11.240Z,17.10
2018-08-14T08:51:39.033Z,17.12
2018-08-14T08:54:06.534Z,17.11
2018-08-14T08:56:34.184Z,17.13
2018-08-14T08:59:01.852Z,17.15
2018-08-14T09:01:29.335Z,17.20
2018-08-14T09:03:56.868Z,17.21
2018-08-14T09:06:24.627Z,17.24
2018-08-14T09:08:52.236Z,17.29
2018-08-14T09:11:19.793Z,17.33
2018-08-14T09:13:47.579Z,17.36
2018-08-14T09:16:15.108Z,17.38
2018-08-14T09:18:42.588Z,17.42
2018-08-14T09:21:10.410Z,17.44
2018-08-14T09:23:37.917Z,17.49
2018-08-14T09:26:05.436Z,17.53
2018-08-14T09:28:33.548Z,17.56
2018-08-14T09:31:01.158Z,17.58
2018-08-14T09:33:28.685Z,17.59
2018-08-14T09:35:56.478Z,17.61
2018-08-14T09:38:23.986Z,17.61
2018-08-14T09:40:51.544Z,17.61
2018-08-14T09:43:19.271Z,17.60
2018-08-14T09:45:48.499Z,17.57
2018-08-14T09:48:16.130Z,17.55
2018-08-14T09:50:43.747Z,17.51
2018-08-14T09:53:11.399Z,17.50
2018-08-14T09:55:38.957Z,17.48
2018-08-14T09:58:06.732Z,17.46
2018-08-14T10:00:39.809Z,17.43
2018-08-14T10:03:17.234Z,17.41
2018-08-14T10:05:49.878Z,17.38
2018-08-14T10:08:18.856Z,17.36
2018-08-14T10:10:46.346Z,17.33
2018-08-14T10:13:15.671Z,17.29
2018-08-14T10:15:43.141Z,17.27
2018-08-14T10:18:13.122Z,17.25
2018-08-14T10:20:40.858Z,17.24
2018-08-14T10:23:08.585Z,17.21
2018-08-14T10:25:36.187Z,17.20
2018-08-14T10:28:03.879Z,17.18
2018-08-14T10:30:31.389Z,17.17
2018-08-14T10:32:58.971Z,17.17
2018-08-14T10:35:26.620Z,17.15
2018-08-14T10:37:54.188Z,17.13
2018-08-14T10:40:21.708Z,17.11
2018-08-14T10:42:49.390Z,17.09
2018-08-14T10:45:17.752Z,17.08
2018-08-14T10:47:45.946Z,17.05
2018-08-14T10:50:15.235Z,17.03
2018-08-14T10:52:43.386Z,17.02
2018-08-14T10:55:10.989Z,16.99
2018-08-14T10:57:38.792Z,16.97
2018-08-14T11:00:12.819Z,16.96
2018-08-14T11:02:40.596Z,16.95
2018-08-14T11:05:08.124Z,16.95
2018-08-14T11:07:35.655Z,16.92
2018-08-14T11:10:05.133Z,16.92
2018-08-14T11:12:32.584Z,16.92
2018-08-14T11:15:00.087Z,16.92
2018-08-14T11:17:27.740Z,16.91
2018-08-14T11:19:55.253Z,16.91
2018-08-14T11:22:22.766Z,16.91
2018-08-14T11:24:50.593Z,16.91
2018-08-14T11:27:18.145Z,16.91
2018-08-14T11:29:45.663Z,16.93
2018-08-14T11:32:13.321Z,16.93
2018-08-14T11:34:40.850Z,16.94
2018-08-14T11:37:08.314Z,16.95
2018-08-14T11:39:36.056Z,16.97
2018-08-14T11:42:03.601Z,16.97
2018-08-14T11:44:31.112Z,16.96
2018-08-14T11:46:58.921Z,16.94
2018-08-14T11:49:26.428Z,16.94
2018-08-14T11:52:24.687Z,16.96
2018-08-14T11:54:52.249Z,16.97
2018-08-14T11:57:19.798Z,16.97
2018-08-14T11:59:47.490Z,16.98
2018-08-14T12:02:14.969Z,16.99
2018-08-14T12:04:42.500Z,17.00
2018-08-14T12:07:10.289Z,17.01
2018-08-14T12:09:37.754Z,17.02
2018-08-14T12:12:05.652Z,17.05
2018-08-14T12:14:33.351Z,17.04
2018-08-14T12:17:00.830Z,17.03
2018-08-14T12:19:28.316Z,17.03
2018-08-14T12:21:56.036Z,17.02
2018-08-14T12:24:23.516Z,17.03
2018-08-14T12:26:51.166Z,17.03
2018-08-14T12:29:18.862Z,17.02
2018-08-14T12:31:46.380Z,17.02
2018-08-14T12:34:13.829Z,17.02
2018-08-14T12:36:41.592Z,17.03
2018-08-14T12:39:09.735Z,17.04
2018-08-14T12:41:37.280Z,17.04
2018-08-14T12:44:05.132Z,17.04
2018-08-14T12:46:32.667Z,17.04
2018-08-14T12:49:00.211Z,17.03
2018-08-14T12:51:27.950Z,17.03
2018-08-14T12:53:55.448Z,17.05
2018-08-14T12:56:22.896Z,17.06
2018-08-14T12:58:50.605Z,17.06
2018-08-14T13:01:18.013Z,17.06
2018-08-14T13:03:45.531Z,17.09
2018-08-14T13:06:13.155Z,17.11
2018-08-14T13:08:40.676Z,17.09
2018-08-14T13:11:08.227Z,17.09
2018-08-14T13:13:35.969Z,17.11
2018-08-14T13:16:03.522Z,17.12
2018-08-14T13:18:31.239Z,17.12
2018-08-14T13:20:58.882Z,17.12
2018-08-14T13:23:26.326Z,17.10
2018-08-14T13:25:53.935Z,17.09
2018-08-14T13:28:22.008Z,17.11
2018-08-14T13:30:49.464Z,17.11
2018-08-14T13:33:16.964Z,17.13
2018-08-14T13:35:44.659Z,17.13
2018-08-14T13:38:12.147Z,17.12
2018-08-14T13:40:39.626Z,17.12
2018-08-14T13:43:07.389Z,17.10
2018-08-14T13:45:34.890Z,17.07
2018-08-14T13:48:02.521Z,17.04
2018-08-14T13:50:30.248Z,17.04
2018-08-14T13:52:57.793Z,17.02
2018-08-14T13:55:25.269Z,17.01
2018-08-14T13:57:53.052Z,17.01
2018-08-14T14:00:24.803Z,16.99
2018-08-14T14:02:52.594Z,16.97
2018-08-14T14:05:20.525Z,16.95
2018-08-14T14:07:48.061Z,16.91
2018-08-14T14:10:16.705Z,16.91
2018-08-14T14:12:44.409Z,16.91
2018-08-14T14:15:17.581Z,16.90
2018-08-14T14:17:46.436Z,16.88
2018-08-14T14:20:14.501Z,16.87
2018-08-14T14:22:42.947Z,16.87
2018-08-14T14:25:10.813Z,16.90
2018-08-14T14:27:38.355Z,16.92
2018-08-14T14:30:08.612Z,16.91
2018-08-14T14:32:36.262Z,16.92
2018-08-14T14:35:04.695Z,16.92
2018-08-14T14:37:32.282Z,16.92
2018-08-14T14:40:00.029Z,16.92
2018-08-14T14:42:27.530Z,16.93
2018-08-14T14:44:55.033Z,16.94
2018-08-14T14:47:22.730Z,16.93
2018-08-14T14:49:50.254Z,16.93
2018-08-14T14:52:17.916Z,16.92
2018-08-14T14:54:45.617Z,16.93
2018-08-14T14:57:13.099Z,16.94
2018-08-14T14:59:40.634Z,16.97
2018-08-14T15:02:09.416Z,17.00
2018-08-14T15:04:36.867Z,16.99
2018-08-14T15:07:04.403Z,16.97
2018-08-14T15:09:32.000Z,17.00
2018-08-14T15:11:59.538Z,17.02
2018-08-14T15:14:27.057Z,17.03
2018-08-14T15:16:54.661Z,17.03
2018-08-14T15:19:22.198Z,17.03
2018-08-14T15:21:49.722Z,17.03
2018-08-14T15:24:17.458Z,17.04
2018-08-14T15:26:45.082Z,17.03
2018-08-14T15:29:17.461Z,17.04
2018-08-14T15:31:47.336Z,17.04
2018-08-14T15:34:17.077Z,17.04
2018-08-14T15:36:46.178Z,17.04
2018-08-14T15:39:15.009Z,17.02
2018-08-14T15:41:42.694Z,17.01
2018-08-14T15:44:10.656Z,17.02
2018-08-14T15:46:38.293Z,17.02
2018-08-14T15:49:06.302Z,17.03
2018-08-14T15:51:33.878Z,17.07
2018-08-14T15:54:01.530Z,17.09
2018-08-14T15:56:29.102Z,17.11
2018-08-14T15:58:56.671Z,17.13
2018-08-14T16:01:24.492Z,17.13
2018-08-14T16:03:52.024Z,17.14
2018-08-14T16:06:19.557Z,17.14
2018-08-14T16:08:47.185Z,17.15
2018-08-14T16:11:14.807Z,17.16
2018-08-14T16:13:42.380Z,17.17
2018-08-14T16:16:10.125Z,17.18
2018-08-14T16:18:37.614Z,17.19
2018-08-14T16:21:06.191Z,17.19
2018-08-14T16:23:33.898Z,17.18
2018-08-14T16:26:01.371Z,17.17
2018-08-14T16:28:28.912Z,17.15
2018-08-14T16:30:56.579Z,17.15
2018-08-14T16:33:24.338Z,17.15
2018-08-14T16:35:51.958Z,17.15
2018-08-14T16:38:19.651Z,17.14
2018-08-14T16:40:47.234Z,17.13
2018-08-14T16:43:14.689Z,17.14
2018-08-14T16:45:42.400Z,17.15
2018-08-14T16:48:09.908Z,17.13
2018-08-14T16:50:37.374Z,17.13
2018-08-14T16:53:04.991Z,17.14
2018-08-14T16:55:32.475Z,17.14
2018-08-14T16:58:00.001Z,17.13
2018-08-14T17:00:33.142Z,17.13
2018-08-14T17:03:01.338Z,17.11
2018-08-14T17:05:28.840Z,17.10
2018-08-14T17:07:56.345Z,17.08
2018-08-14T17:10:25.048Z,17.07
2018-08-14T17:12:53.476Z,17.07
2018-08-14T17:15:21.211Z,17.07
2018-08-14T17:17:49.159Z,17.06
2018-08-14T17:20:15.914Z,17.05
2018-08-14T17:22:43.487Z,17.04
2018-08-14T17:25:11.342Z,17.02
2018-08-14T17:27:40.718Z,17.01
2018-08-14T17:30:15.118Z,17.01
2018-08-14T17:32:42.736Z,16.98
2018-08-14T17:35:10.402Z,16.97
2018-08-14T17:37:38.428Z,16.94
2018-08-14T17:40:08.410Z,16.93
2018-08-14T17:42:35.944Z,16.91
2018-08-14T17:45:04.383Z,16.90
2018-08-14T17:47:31.918Z,16.90
2018-08-14T17:49:59.431Z,16.90
2018-08-14T17:52:27.223Z,16.88
2018-08-14T17:54:54.736Z,16.87
2018-08-14T17:57:22.199Z,16.87
2018-08-14T17:59:49.944Z,16.85
2018-08-14T18:02:17.432Z,16.83
2018-08-14T18:04:44.928Z,16.81
2018-08-14T18:07:12.664Z,16.79
2018-08-14T18:09:40.220Z,16.78
2018-08-14T18:12:07.799Z,16.76
2018-08-14T18:14:35.356Z,16.75
2018-08-14T18:17:02.783Z,16.73
2018-08-14T18:19:30.243Z,16.71
2018-08-14T18:21:57.982Z,16.69
2018-08-14T18:24:25.505Z,16.68
2018-08-14T18:26:53.005Z,16.65
2018-08-14T18:29:20.641Z,16.61
2018-08-14T18:31:48.109Z,16.57
2018-08-14T18:34:15.644Z,16.54
2018-08-14T18:36:43.489Z,16.53
2018-08-14T18:39:11.169Z,16.49
2018-08-14T18:41:38.751Z,16.45
2018-08-14T18:44:06.493Z,16.44
2018-08-14T18:46:34.140Z,16.42
2018-08-14T18:49:01.804Z,16.38
2018-08-14T18:51:29.449Z,16.33
2018-08-14T18:53:57.023Z,16.30
2018-08-14T18:56:24.797Z,16.27
2018-08-14T18:58:52.435Z,16.23
2018-08-14T19:01:20.124Z,16.20
2018-08-14T19:03:47.657Z,16.16
2018-08-14T19:06:15.383Z,16.12
2018-08-14T19:08:42.859Z,16.10
2018-08-14T19:11:10.335Z,16.06
2018-08-14T19:13:38.026Z,16.02
2018-08-14T19:16:05.615Z,16.00
2018-08-14T19:18:33.110Z,15.95
2018-08-14T19:21:00.990Z,15.92
2018-08-14T19:23:28.557Z,15.89
2018-08-14T19:25:55.980Z,15.86
2018-08-14T19:28:23.744Z,15.82
2018-08-14T19:30:51.197Z,15.77
2018-08-14T19:33:18.686Z,15.72
2018-08-14T19:35:46.364Z,15.68
2018-08-14T19:38:14.088Z,15.64
2018-08-14T19:40:41.710Z,15.59
2018-08-14T19:43:09.440Z,15.54
2018-08-14T19:45:36.910Z,15.50
2018-08-14T19:48:04.478Z,15.47
2018-08-14T19:50:32.096Z,15.42
2018-08-14T19:52:59.566Z,15.38
2018-08-14T19:55:27.151Z,15.35
2018-08-14T19:57:54.716Z,15.32
2018-08-14T20:00:23.649Z,15.27
2018-08-14T20:02:51.515Z,15.23
2018-08-14T20:05:19.304Z,15.17
2018-08-14T20:07:46.874Z,15.10
2018-08-14T20:10:14.480Z,15.08
2018-08-14T20:12:42.183Z,15.02
2018-08-14T20:15:11.299Z,15.00
2018-08-14T20:17:38.849Z,14.97
2018-08-14T20:20:09.571Z,14.96
2018-08-14T20:22:37.073Z,14.95
2018-08-14T20:25:05.281Z,14.92
2018-08-14T20:27:33.873Z,14.90
2018-08-14T20:30:01.543Z,14.86
2018-08-14T20:32:29.137Z,14.82
2018-08-14T20:34:56.854Z,14.78
2018-08-14T20:37:24.685Z,14.75
2018-08-14T20:39:52.341Z,14.61
2018-08-14T20:42:19.944Z,14.66
2018-08-14T20:44:47.491Z,14.63
2018-08-14T20:47:14.973Z,14.61
2018-08-14T20:49:42.734Z,14.58
2018-08-14T20:52:10.225Z,14.55
2018-08-14T20:54:37.859Z,14.53
2018-08-14T20:57:05.672Z,14.51
2018-08-14T20:59:33.216Z,14.49
2018-08-14T21:02:00.782Z,14.46
2018-08-14T21:04:28.424Z,14.43
2018-08-14T21:06:56.085Z,14.39
2018-08-14T21:09:23.533Z,14.37
2018-08-14T21:11:51.131Z,14.36
2018-08-14T21:14:18.627Z,14.34
2018-08-14T21:16:46.089Z,14.33
2018-08-14T21:19:20.508Z,14.30
2018-08-14T21:21:48.061Z,14.28
2018-08-14T21:24:15.622Z,14.25
2018-08-14T21:26:43.524Z,14.23
2018-08-14T21:29:11.050Z,14.22
2018-08-14T21:31:38.515Z,14.20
2018-08-14T21:34:20.986Z,14.19
2018-08-14T21:36:48.565Z,14.18
2018-08-14T21:39:16.126Z,14.15
2018-08-14T21:41:43.911Z,14.15
2018-08-14T21:44:11.462Z,14.13
2018-08-14T21:46:39.075Z,14.10
2018-08-14T21:49:06.781Z,14.08
2018-08-14T21:51:34.416Z,14.07
2018-08-14T21:54:01.989Z,14.03
2018-08-14T21:56:29.773Z,14.03
2018-08-14T21:58:57.313Z,13.91
2018-08-14T22:01:24.855Z,13.98
2018-08-14T22:03:52.647Z,13.95
2018-08-14T22:06:20.167Z,13.93
2018-08-14T22:08:47.682Z,13.90
2018-08-14T22:11:15.331Z,13.88
2018-08-14T22:13:42.880Z,13.84
2018-08-14T22:16:10.455Z,13.80
2018-08-14T22:18:38.242Z,13.77
2018-08-14T22:21:05.962Z,13.73
2018-08-14T22:23:33.614Z,13.70
2018-08-14T22:26:01.546Z,13.66
2018-08-14T22:28:29.193Z,13.63
2018-08-14T22:30:56.909Z,13.60
2018-08-14T22:33:24.691Z,13.58
2018-08-14T22:35:52.493Z,13.53
2018-08-14T22:38:20.213Z,13.50
2018-08-14T22:40:47.962Z,13.44
2018-08-14T22:43:15.817Z,13.40
2018-08-14T22:48:41.955Z,13.30
2018-08-14T22:51:09.579Z,13.26
2018-08-14T22:53:37.206Z,13.22
2018-08-14T22:56:05.578Z,13.20
2018-08-14T22:58:33.195Z,13.16
2018-08-14T23:01:00.831Z,13.11
2018-08-14T23:03:28.697Z,13.08
2018-08-14T23:05:56.359Z,13.04
2018-08-14T23:08:23.971Z,13.01
2018-08-14T23:10:51.743Z,12.98
2018-08-14T23:13:19.433Z,12.94
2018-08-14T23:15:51.551Z,12.92
2018-08-14T23:18:19.503Z,12.88
2018-08-14T23:20:47.145Z,12.83
2018-08-14T23:23:14.777Z,12.78
2018-08-14T23:25:42.630Z,12.74
2018-08-14T23:28:10.260Z,12.71
2018-08-14T23:30:37.899Z,12.67
2018-08-14T23:33:06.017Z,12.64
2018-08-14T23:35:33.597Z,12.59
2018-08-14T23:38:01.287Z,12.56
2018-08-14T23:40:29.062Z,12.52
2018-08-14T23:42:56.662Z,12.48
2018-08-14T23:45:24.538Z,12.42
2018-08-14T23:47:52.415Z,12.40
2018-08-14T23:50:20.067Z,12.36
2018-08-14T23:52:47.682Z,12.33
2018-08-14T23:55:15.560Z,12.30
2018-08-14T23:57:43.213Z,12.26
